createdAt,value
2023-05-23T00:00:58.287Z,15.68
2023-05-23T00:03:28.580Z,15.68
2023-05-23T00:05:55.626Z,15.69
2023-05-23T00:08:22.456Z,15.71
2023-05-23T00:10:49.246Z,15.74
2023-05-23T00:13:15.849Z,15.74
2023-05-23T00:15:42.786Z,15.75
2023-05-23T00:18:10.974Z,15.75
2023-05-23T00:20:38.481Z,15.72
2023-05-23T00:23:05.102Z,15.70
2023-05-23T00:25:31.620Z,15.65
2023-05-23T00:27:58.243Z,15.61
2023-05-23T00:30:25.029Z,15.54
2023-05-23T00:32:53.318Z,15.50
2023-05-23T00:35:23.153Z,15.47
2023-05-23T00:37:50.074Z,15.49
2023-05-23T00:40:17.080Z,15.50
2023-05-23T00:42:43.907Z,15.48
2023-05-23T00:45:11.058Z,15.46
2023-05-23T00:47:38.276Z,15.47
2023-05-23T00:50:06.224Z,15.47
2023-05-23T00:52:33.723Z,15.44
2023-05-23T00:55:00.249Z,15.44
2023-05-23T00:57:26.745Z,15.45
2023-05-23T00:59:53.374Z,15.47
2023-05-23T01:02:20.357Z,15.49
2023-05-23T01:04:50.970Z,15.48
2023-05-23T01:07:17.444Z,15.49
2023-05-23T01:09:44.015Z,15.48
2023-05-23T01:12:14.818Z,15.41
2023-05-23T01:15:05.842Z,15.36
2023-05-23T01:18:10.669Z,15.31
2023-05-23T01:21:01.433Z,15.29
2023-05-23T01:24:04.780Z,15.27
2023-05-23T01:26:41.374Z,15.23
2023-05-23T01:29:15.106Z,15.21
2023-05-23T01:31:46.964Z,15.18
2023-05-23T01:34:14.513Z,15.16
2023-05-23T01:36:43.214Z,15.17
2023-05-23T01:39:09.818Z,15.14
2023-05-23T01:41:36.932Z,15.22
2023-05-23T01:44:04.638Z,15.22
2023-05-23T01:46:32.542Z,15.27
2023-05-23T01:49:00.660Z,15.28
2023-05-23T01:51:27.556Z,15.28
2023-05-23T01:53:54.190Z,15.30
2023-05-23T01:56:21.391Z,15.31
2023-05-23T01:58:48.099Z,15.30
2023-05-23T02:01:15.354Z,15.27
2023-05-23T02:03:42.339Z,15.25
2023-05-23T02:06:08.948Z,15.21
2023-05-23T02:08:35.657Z,15.20
2023-05-23T02:11:02.467Z,15.21
2023-05-23T02:13:29.181Z,15.19
2023-05-23T02:15:56.088Z,15.16
2023-05-23T02:18:23.012Z,15.10
2023-05-23T02:20:49.478Z,15.04
2023-05-23T02:23:16.329Z,15.00
2023-05-23T02:25:43.318Z,14.98
2023-05-23T02:28:13.073Z,14.96
2023-05-23T02:30:39.970Z,14.93
2023-05-23T02:33:07.479Z,14.92
2023-05-23T02:35:34.471Z,14.88
2023-05-23T02:38:01.122Z,14.84
2023-05-23T02:40:27.988Z,14.83
2023-05-23T02:42:54.597Z,14.79
2023-05-23T02:45:21.128Z,14.75
2023-05-23T02:47:47.730Z,14.73
2023-05-23T02:50:14.488Z,14.74
2023-05-23T02:52:41.068Z,14.73
2023-05-23T02:55:08.448Z,14.75
2023-05-23T02:57:35.669Z,14.76
2023-05-23T03:00:02.584Z,14.74
2023-05-23T03:02:29.221Z,14.84
2023-05-23T03:04:56.001Z,14.86
2023-05-23T03:07:28.204Z,14.90
2023-05-23T03:09:55.392Z,14.93
2023-05-23T03:12:22.224Z,14.98
2023-05-23T03:14:49.023Z,15.01
2023-05-23T03:17:15.934Z,15.01
2023-05-23T03:19:43.132Z,15.03
2023-05-23T03:22:09.863Z,15.07
2023-05-23T03:24:36.580Z,15.09
2023-05-23T03:27:03.692Z,15.16
2023-05-23T03:29:30.880Z,15.19
2023-05-23T03:31:57.587Z,15.21
2023-05-23T03:34:24.318Z,15.21
2023-05-23T03:36:51.026Z,15.23
2023-05-23T03:39:17.867Z,15.25
2023-05-23T03:41:44.741Z,15.25
2023-05-23T03:44:11.608Z,15.23
2023-05-23T03:46:39.752Z,15.24
2023-05-23T03:49:07.005Z,15.27
2023-05-23T03:51:35.016Z,15.28
2023-05-23T03:54:01.802Z,15.29
2023-05-23T03:56:28.512Z,15.27
2023-05-23T03:58:55.312Z,15.23
2023-05-23T04:01:22.227Z,15.16
2023-05-23T04:03:49.307Z,15.16
2023-05-23T04:06:16.145Z,15.12
2023-05-23T04:08:42.779Z,15.19
2023-05-23T04:11:09.624Z,15.30
2023-05-23T04:13:36.276Z,15.28
2023-05-23T04:16:03.206Z,15.23
2023-05-23T04:18:33.334Z,15.28
2023-05-23T04:21:00.551Z,15.28
2023-05-23T04:23:27.429Z,15.32
2023-05-23T04:25:54.156Z,15.31
2023-05-23T04:28:21.028Z,15.33
2023-05-23T04:30:47.869Z,15.35
2023-05-23T04:33:14.352Z,15.39
2023-05-23T04:35:41.190Z,15.36
2023-05-23T04:38:08.057Z,15.43
2023-05-23T04:40:34.580Z,15.51
2023-05-23T04:43:01.305Z,15.53
2023-05-23T04:45:27.837Z,15.58
2023-05-23T04:47:54.727Z,15.57
2023-05-23T04:50:21.651Z,15.59
2023-05-23T04:52:48.174Z,15.65
2023-05-23T04:55:14.864Z,15.67
2023-05-23T04:57:41.458Z,15.72
2023-05-23T05:00:08.394Z,15.76
2023-05-23T05:02:35.109Z,15.80
2023-05-23T05:05:01.701Z,15.84
2023-05-23T05:07:28.528Z,15.84
2023-05-23T05:09:55.222Z,15.84
2023-05-23T05:12:21.878Z,15.89
2023-05-23T05:14:48.427Z,15.94
2023-05-23T05:17:14.933Z,16.06
2023-05-23T05:19:41.499Z,16.14
2023-05-23T05:22:08.075Z,16.20
2023-05-23T05:24:34.951Z,16.30
2023-05-23T05:27:01.492Z,16.40
2023-05-23T05:29:28.385Z,16.57
2023-05-23T05:31:54.940Z,16.70
2023-05-23T05:34:21.625Z,16.84
2023-05-23T05:36:48.461Z,16.95
2023-05-23T05:39:15.433Z,17.05
2023-05-23T05:41:41.948Z,17.06
2023-05-23T05:44:09.254Z,17.13
2023-05-23T05:46:36.184Z,17.22
2023-05-23T05:49:03.172Z,17.35
2023-05-23T05:51:29.614Z,17.30
2023-05-23T05:53:56.297Z,17.22
2023-05-23T05:56:23.164Z,17.24
2023-05-23T05:58:49.773Z,17.35
2023-05-23T06:01:16.619Z,17.51
2023-05-23T06:03:43.607Z,17.72
2023-05-23T06:06:10.317Z,18.15
2023-05-23T06:08:36.847Z,18.69
2023-05-23T06:11:03.834Z,19.43
2023-05-23T06:13:30.817Z,19.84
2023-05-23T06:15:57.801Z,19.50
2023-05-23T06:18:24.539Z,19.13
2023-05-23T06:20:51.030Z,19.27
2023-05-23T06:23:18.191Z,19.13
2023-05-23T06:25:44.707Z,18.94
2023-05-23T06:28:11.218Z,18.60
2023-05-23T06:30:38.105Z,18.50
2023-05-23T06:33:05.384Z,18.44
2023-05-23T06:35:32.203Z,18.51
2023-05-23T06:37:58.819Z,18.43
2023-05-23T06:40:25.616Z,18.09
2023-05-23T06:42:52.097Z,18.06
2023-05-23T06:45:20.140Z,17.96
2023-05-23T06:47:46.757Z,17.99
2023-05-23T06:50:13.430Z,17.94
2023-05-23T06:52:40.165Z,17.99
2023-05-23T06:55:07.664Z,18.10
2023-05-23T06:57:34.288Z,18.16
2023-05-23T07:00:00.904Z,18.00
2023-05-23T07:02:28.179Z,17.92
2023-05-23T07:04:54.826Z,18.09
2023-05-23T07:07:21.726Z,17.99
2023-05-23T07:09:48.845Z,17.92
2023-05-23T07:12:18.522Z,17.87
2023-05-23T07:14:45.044Z,17.77
2023-05-23T07:17:11.736Z,17.77
2023-05-23T07:19:38.571Z,17.84
2023-05-23T07:22:05.335Z,17.71
2023-05-23T07:24:31.931Z,17.85
2023-05-23T07:26:58.503Z,17.73
2023-05-23T07:29:25.383Z,17.78
2023-05-23T07:31:52.206Z,17.81
2023-05-23T07:34:20.205Z,17.78
2023-05-23T07:36:46.942Z,17.77
2023-05-23T07:39:13.844Z,17.69
2023-05-23T07:41:41.150Z,17.48
2023-05-23T07:44:07.894Z,17.45
2023-05-23T07:46:34.426Z,17.37
2023-05-23T07:49:04.386Z,17.34
2023-05-23T07:51:31.480Z,17.14
2023-05-23T07:53:58.109Z,17.09
2023-05-23T07:56:25.373Z,17.05
2023-05-23T07:58:52.693Z,16.92
2023-05-23T08:01:19.657Z,16.84
2023-05-23T08:03:49.883Z,16.88
2023-05-23T08:06:16.747Z,16.84
2023-05-23T08:08:43.713Z,16.93
2023-05-23T08:11:10.324Z,17.04
2023-05-23T08:13:36.904Z,17.08
2023-05-23T08:16:03.845Z,17.09
2023-05-23T08:18:31.863Z,17.29
2023-05-23T08:20:58.809Z,17.38
2023-05-23T08:23:25.288Z,17.36
2023-05-23T08:25:54.758Z,17.59
2023-05-23T08:28:21.273Z,17.65
2023-05-23T08:30:47.976Z,17.75
2023-05-23T08:33:14.633Z,17.98
2023-05-23T08:35:41.893Z,18.05
2023-05-23T08:38:11.835Z,18.00
2023-05-23T08:40:41.567Z,17.93
2023-05-23T08:43:10.629Z,17.74
2023-05-23T08:45:37.529Z,17.75
2023-05-23T08:48:08.214Z,17.81
2023-05-23T08:50:39.158Z,17.82
2023-05-23T08:53:06.655Z,18.02
2023-05-23T08:55:33.974Z,17.77
2023-05-23T08:58:01.996Z,17.88
2023-05-23T09:00:28.721Z,17.75
2023-05-23T09:02:55.972Z,17.50
2023-05-23T09:05:23.029Z,17.39
2023-05-23T09:07:50.505Z,17.65
2023-05-23T09:10:19.234Z,17.65
2023-05-23T09:12:46.150Z,17.62
2023-05-23T09:15:13.306Z,17.65
2023-05-23T09:17:40.258Z,17.81
2023-05-23T09:20:15.013Z,17.91
2023-05-23T09:22:46.893Z,17.86
2023-05-23T09:25:14.240Z,17.88
2023-05-23T09:27:42.151Z,18.11
2023-05-23T09:30:11.597Z,18.01
2023-05-23T09:32:38.874Z,18.23
2023-05-23T09:35:08.943Z,18.39
2023-05-23T09:37:45.962Z,18.97
2023-05-23T09:40:14.922Z,19.43
2023-05-23T09:42:43.782Z,19.22
2023-05-23T09:45:12.932Z,19.21
2023-05-23T09:47:41.337Z,19.16
2023-05-23T09:50:09.310Z,18.70
2023-05-23T09:52:39.104Z,18.50
2023-05-23T09:55:06.721Z,18.77
2023-05-23T09:57:40.158Z,18.87
2023-05-23T10:00:08.144Z,19.04
2023-05-23T10:02:37.763Z,19.03
2023-05-23T10:05:07.290Z,18.92
2023-05-23T10:07:35.477Z,19.26
2023-05-23T10:10:06.606Z,18.66
2023-05-23T10:12:36.100Z,18.73
2023-05-23T10:15:05.169Z,18.58
2023-05-23T10:17:40.767Z,18.86
2023-05-23T10:20:11.631Z,19.25
2023-05-23T10:22:39.218Z,19.32
2023-05-23T10:25:07.177Z,19.01
2023-05-23T10:27:34.360Z,18.77
2023-05-23T10:30:01.405Z,19.08
2023-05-23T10:32:37.307Z,18.64
2023-05-23T10:35:25.357Z,18.80
2023-05-23T10:38:17.296Z,19.17
2023-05-23T10:41:25.730Z,18.88
2023-05-23T10:44:12.911Z,19.65
2023-05-23T10:47:00.160Z,19.45
2023-05-23T10:49:43.382Z,19.48
2023-05-23T10:52:13.191Z,20.11
2023-05-23T10:54:49.562Z,19.88
2023-05-23T10:57:18.973Z,19.47
2023-05-23T10:59:46.969Z,19.90
2023-05-23T11:02:15.870Z,19.27
2023-05-23T11:04:43.537Z,19.80
2023-05-23T11:07:32.806Z,19.66
2023-05-23T11:10:11.191Z,19.46
2023-05-23T11:12:40.857Z,19.24
2023-05-23T11:15:19.896Z,19.61
2023-05-23T11:17:52.808Z,20.22
2023-05-23T11:20:20.573Z,19.72
2023-05-23T11:22:54.941Z,19.38
2023-05-23T11:25:21.624Z,19.68
2023-05-23T11:27:50.219Z,19.80
2023-05-23T11:30:18.078Z,19.26
2023-05-23T11:32:52.269Z,19.33
2023-05-23T11:35:19.338Z,19.22
2023-05-23T11:37:46.094Z,19.00
2023-05-23T11:40:27.302Z,19.24
2023-05-23T11:42:54.815Z,19.68
2023-05-23T11:45:22.986Z,19.89
2023-05-23T11:47:49.591Z,20.03
2023-05-23T11:50:17.138Z,20.13
2023-05-23T11:52:46.860Z,20.01
2023-05-23T11:55:14.460Z,19.80
2023-05-23T11:57:41.428Z,19.56
2023-05-23T12:00:09.206Z,19.97
2023-05-23T12:02:44.223Z,20.16
2023-05-23T12:05:12.900Z,19.75
2023-05-23T12:07:42.875Z,20.60
2023-05-23T12:10:11.095Z,20.37
2023-05-23T12:12:38.040Z,20.49
2023-05-23T12:15:06.437Z,20.26
2023-05-23T12:17:35.946Z,20.28
2023-05-23T12:20:03.392Z,19.64
2023-05-23T12:22:31.359Z,20.05
2023-05-23T12:24:58.359Z,19.59
2023-05-23T12:27:29.240Z,19.99
2023-05-23T12:30:13.487Z,19.98
2023-05-23T12:32:44.970Z,20.65
2023-05-23T12:35:13.914Z,20.73
2023-05-23T12:37:42.430Z,20.50
2023-05-23T12:40:17.563Z,20.22
2023-05-23T12:42:51.971Z,20.23
2023-05-23T12:45:23.042Z,20.29
2023-05-23T12:47:52.990Z,20.69
2023-05-23T12:50:20.988Z,20.69
2023-05-23T12:52:47.775Z,20.51
2023-05-23T12:55:14.492Z,19.97
2023-05-23T12:57:41.675Z,19.79
2023-05-23T13:00:09.116Z,20.17
2023-05-23T13:02:35.931Z,20.50
2023-05-23T13:05:02.949Z,20.75
2023-05-23T13:07:29.938Z,20.61
2023-05-23T13:09:57.069Z,21.06
2023-05-23T13:12:37.028Z,21.01
2023-05-23T13:15:05.200Z,20.94
2023-05-23T13:17:31.921Z,20.66
2023-05-23T13:19:58.513Z,20.67
2023-05-23T13:22:25.096Z,21.12
2023-05-23T13:24:51.801Z,21.07
2023-05-23T13:27:19.837Z,20.61
2023-05-23T13:29:46.465Z,20.86
2023-05-23T13:32:13.166Z,20.51
2023-05-23T13:34:39.780Z,20.92
2023-05-23T13:37:08.988Z,21.60
2023-05-23T13:39:35.686Z,21.52
2023-05-23T13:42:02.701Z,21.39
2023-05-23T13:44:29.633Z,21.14
2023-05-23T13:46:58.592Z,20.91
2023-05-23T13:49:25.690Z,21.19
2023-05-23T13:51:52.467Z,20.82
2023-05-23T13:54:19.342Z,20.13
2023-05-23T13:56:45.840Z,19.79
2023-05-23T13:59:12.681Z,19.39
2023-05-23T14:01:39.305Z,19.30
2023-05-23T14:04:07.214Z,19.54
2023-05-23T14:06:34.044Z,18.98
2023-05-23T14:09:00.914Z,19.23
2023-05-23T14:11:27.759Z,19.35
2023-05-23T14:13:54.837Z,19.24
2023-05-23T14:16:22.000Z,19.64
2023-05-23T14:18:49.222Z,19.84
2023-05-23T14:21:17.594Z,19.38
2023-05-23T14:23:44.659Z,19.57
2023-05-23T14:26:13.086Z,20.02
2023-05-23T14:28:40.515Z,19.55
2023-05-23T14:31:07.723Z,19.44
2023-05-23T14:33:35.313Z,19.61
2023-05-23T14:36:02.604Z,19.42
2023-05-23T14:38:29.141Z,19.37
2023-05-23T14:40:56.740Z,19.32
2023-05-23T14:43:23.875Z,19.61
2023-05-23T14:45:50.808Z,19.77
2023-05-23T14:48:18.178Z,19.90
2023-05-23T14:50:45.389Z,19.71
2023-05-23T14:53:12.021Z,19.91
2023-05-23T14:55:38.866Z,20.10
2023-05-23T14:58:05.522Z,20.27
2023-05-23T15:00:32.233Z,19.80
2023-05-23T15:02:58.898Z,19.65
2023-05-23T15:05:25.891Z,19.64
2023-05-23T15:07:53.180Z,19.71
2023-05-23T15:10:22.795Z,19.72
2023-05-23T15:12:49.801Z,19.83
2023-05-23T15:15:16.600Z,19.70
2023-05-23T15:17:43.623Z,19.56
2023-05-23T15:20:11.007Z,19.66
2023-05-23T15:22:39.825Z,19.78
2023-05-23T15:25:08.328Z,19.72
2023-05-23T15:27:37.632Z,20.00
2023-05-23T15:30:04.979Z,19.83
2023-05-23T15:32:31.565Z,19.55
2023-05-23T15:34:58.211Z,19.91
2023-05-23T15:37:25.142Z,19.77
2023-05-23T15:39:52.075Z,19.56
2023-05-23T15:42:18.610Z,19.53
2023-05-23T15:44:45.697Z,19.78
2023-05-23T15:47:12.303Z,19.88
2023-05-23T15:49:39.053Z,19.66
2023-05-23T15:52:05.973Z,19.35
2023-05-23T15:54:32.697Z,19.39
2023-05-23T15:56:59.304Z,19.13
2023-05-23T15:59:26.284Z,19.52
2023-05-23T16:01:53.335Z,19.89
2023-05-23T16:04:19.938Z,20.12
2023-05-23T16:06:46.712Z,20.01
2023-05-23T16:09:13.956Z,20.11
2023-05-23T16:11:41.403Z,19.87
2023-05-23T16:14:07.950Z,19.98
2023-05-23T16:16:37.492Z,20.03
2023-05-23T16:19:04.252Z,20.16
2023-05-23T16:21:31.198Z,20.16
2023-05-23T16:23:57.681Z,20.13
2023-05-23T16:26:24.583Z,20.17
2023-05-23T16:28:51.602Z,20.57
2023-05-23T16:31:18.320Z,20.53
2023-05-23T16:33:45.231Z,20.69
2023-05-23T16:36:12.539Z,20.47
2023-05-23T16:38:39.451Z,19.99
2023-05-23T16:41:06.381Z,20.13
2023-05-23T16:43:33.989Z,19.96
2023-05-23T16:46:01.212Z,19.87
2023-05-23T16:48:27.764Z,19.62
2023-05-23T16:50:54.888Z,19.67
2023-05-23T16:53:22.434Z,19.45
2023-05-23T16:55:49.018Z,19.65
2023-05-23T16:58:18.015Z,19.87
2023-05-23T17:00:45.936Z,19.62
2023-05-23T17:03:12.748Z,19.58
2023-05-23T17:05:39.834Z,19.49
2023-05-23T17:08:06.571Z,19.30
2023-05-23T17:10:34.355Z,19.27
2023-05-23T17:13:01.063Z,19.21
2023-05-23T17:15:27.595Z,19.12
2023-05-23T17:17:54.178Z,18.89
2023-05-23T17:20:20.774Z,18.52
2023-05-23T17:22:47.622Z,18.45
2023-05-23T17:25:14.342Z,18.39
2023-05-23T17:27:41.157Z,18.34
2023-05-23T17:30:08.552Z,18.48
2023-05-23T17:32:35.882Z,18.43
2023-05-23T17:35:02.693Z,18.46
2023-05-23T17:37:29.715Z,18.42
2023-05-23T17:39:57.899Z,18.42
2023-05-23T17:42:27.312Z,18.34
2023-05-23T17:44:54.300Z,18.27
2023-05-23T17:47:23.440Z,18.00
2023-05-23T17:49:50.232Z,17.97
2023-05-23T17:52:17.292Z,17.83
2023-05-23T17:54:44.261Z,17.74
2023-05-23T17:57:11.186Z,17.85
2023-05-23T17:59:38.019Z,17.73
2023-05-23T18:02:05.396Z,17.62
2023-05-23T18:04:32.179Z,17.63
2023-05-23T18:06:59.881Z,17.55
2023-05-23T18:09:27.215Z,17.50
2023-05-23T18:11:57.108Z,17.49
2023-05-23T18:14:24.117Z,17.39
2023-05-23T18:16:51.148Z,17.46
2023-05-23T18:19:20.787Z,17.33
2023-05-23T18:21:47.629Z,17.27
2023-05-23T18:24:14.289Z,17.22
2023-05-23T18:26:41.797Z,17.14
2023-05-23T18:29:09.671Z,17.15
2023-05-23T18:31:36.441Z,17.04
2023-05-23T18:34:04.601Z,17.00
2023-05-23T18:36:31.621Z,16.98
2023-05-23T18:38:58.704Z,17.02
2023-05-23T18:41:25.458Z,17.01
2023-05-23T18:43:52.114Z,16.94
2023-05-23T18:46:19.079Z,16.90
2023-05-23T18:48:45.701Z,16.96
2023-05-23T18:51:12.708Z,16.96
2023-05-23T18:53:42.227Z,16.93
2023-05-23T18:56:09.492Z,16.88
2023-05-23T18:58:36.124Z,16.84
2023-05-23T19:01:04.356Z,16.84
2023-05-23T19:03:31.433Z,16.76
2023-05-23T19:05:58.133Z,16.77
2023-05-23T19:08:24.983Z,16.68
2023-05-23T19:10:51.811Z,16.62
2023-05-23T19:13:20.661Z,16.57
2023-05-23T19:15:48.249Z,16.49
2023-05-23T19:18:14.975Z,16.43
2023-05-23T19:20:41.951Z,16.38
2023-05-23T19:23:08.666Z,16.30
2023-05-23T19:25:35.247Z,16.29
2023-05-23T19:28:02.265Z,16.25
2023-05-23T19:30:28.926Z,16.20
2023-05-23T19:32:55.857Z,16.19
2023-05-23T19:35:22.713Z,16.17
2023-05-23T19:37:49.693Z,16.13
2023-05-23T19:40:16.511Z,16.05
2023-05-23T19:42:43.440Z,16.05
2023-05-23T19:45:10.480Z,16.06
2023-05-23T19:47:37.213Z,16.02
2023-05-23T19:50:04.424Z,16.02
2023-05-23T19:52:32.159Z,16.00
2023-05-23T19:55:01.246Z,15.94
2023-05-23T19:57:30.167Z,15.96
2023-05-23T19:59:56.607Z,15.92
2023-05-23T20:02:23.235Z,15.95
2023-05-23T20:04:49.854Z,15.92
2023-05-23T20:07:16.689Z,15.86
2023-05-23T20:09:43.486Z,15.85
2023-05-23T20:12:12.922Z,15.84
2023-05-23T20:14:39.720Z,15.82
2023-05-23T20:17:06.489Z,15.80
2023-05-23T20:19:33.051Z,15.64
2023-05-23T20:22:00.052Z,15.72
2023-05-23T20:24:26.765Z,15.69
2023-05-23T20:26:53.675Z,15.67
2023-05-23T20:29:20.406Z,15.61
2023-05-23T20:31:46.999Z,15.62
2023-05-23T20:34:13.695Z,15.60
2023-05-23T20:36:40.704Z,15.62
2023-05-23T20:39:09.903Z,15.63
2023-05-23T20:41:36.424Z,15.65
2023-05-23T20:44:03.321Z,15.66
2023-05-23T20:46:29.966Z,15.67
2023-05-23T20:48:56.552Z,15.67
2023-05-23T20:51:23.192Z,15.73
2023-05-23T20:53:52.018Z,15.75
2023-05-23T20:56:18.579Z,15.72
2023-05-23T20:58:45.082Z,15.64
2023-05-23T21:01:13.021Z,15.56
2023-05-23T21:03:41.145Z,15.47
2023-05-23T21:06:08.272Z,15.42
2023-05-23T21:08:35.129Z,15.43
2023-05-23T21:11:01.975Z,15.41
2023-05-23T21:13:28.530Z,15.33
2023-05-23T21:15:55.133Z,15.36
2023-05-23T21:18:21.682Z,15.27
2023-05-23T21:20:48.276Z,15.20
2023-05-23T21:23:15.054Z,15.18
2023-05-23T21:25:41.653Z,15.10
2023-05-23T21:28:08.170Z,15.04
2023-05-23T21:30:35.076Z,15.00
2023-05-23T21:33:03.568Z,14.93
2023-05-23T21:35:30.441Z,14.95
2023-05-23T21:37:57.316Z,14.91
2023-05-23T21:40:24.153Z,14.86
2023-05-23T21:42:50.939Z,14.75
2023-05-23T21:45:17.578Z,14.73
2023-05-23T21:47:45.637Z,14.68
2023-05-23T21:50:12.275Z,14.66
2023-05-23T21:52:39.191Z,14.71
2023-05-23T21:55:06.539Z,14.68
2023-05-23T21:57:33.032Z,14.66
2023-05-23T21:59:59.713Z,14.60
2023-05-23T22:02:26.595Z,14.63
2023-05-23T22:04:53.531Z,14.57
2023-05-23T22:07:20.156Z,14.50
2023-05-23T22:09:47.046Z,14.51
2023-05-23T22:12:13.580Z,14.48
2023-05-23T22:14:40.136Z,14.48
2023-05-23T22:17:06.769Z,14.44
2023-05-23T22:19:33.347Z,14.46
2023-05-23T22:22:00.179Z,14.31
2023-05-23T22:24:26.835Z,14.33
2023-05-23T22:26:53.343Z,14.38
2023-05-23T22:29:19.861Z,14.33
2023-05-23T22:31:48.058Z,14.22
2023-05-23T22:34:14.778Z,14.20
2023-05-23T22:36:41.400Z,14.23
2023-05-23T22:39:08.165Z,14.24
2023-05-23T22:41:34.944Z,14.26
2023-05-23T22:44:02.029Z,14.27
2023-05-23T22:46:28.618Z,14.21
2023-05-23T22:48:55.521Z,14.12
2023-05-23T22:51:22.649Z,14.03
2023-05-23T22:53:49.208Z,13.98
2023-05-23T22:56:16.048Z,14.01
2023-05-23T22:58:42.877Z,13.94
2023-05-23T23:01:09.675Z,14.02
2023-05-23T23:03:36.324Z,13.93
2023-05-23T23:06:03.189Z,13.85
2023-05-23T23:08:29.724Z,13.80
2023-05-23T23:10:56.227Z,13.81
2023-05-23T23:13:23.000Z,13.72
2023-05-23T23:15:49.605Z,13.72
2023-05-23T23:18:16.149Z,13.72
2023-05-23T23:20:42.773Z,13.75
2023-05-23T23:23:10.919Z,13.73
2023-05-23T23:25:37.484Z,13.76
2023-05-23T23:28:04.184Z,13.79
2023-05-23T23:30:30.893Z,13.80
2023-05-23T23:32:57.864Z,13.83
2023-05-23T23:35:24.723Z,13.85
2023-05-23T23:37:51.856Z,13.86
2023-05-23T23:40:18.667Z,13.84
2023-05-23T23:42:45.228Z,13.78
2023-05-23T23:45:11.857Z,13.84
2023-05-23T23:47:38.434Z,13.78
2023-05-23T23:50:05.719Z,13.76
2023-05-23T23:52:32.260Z,13.90
2023-05-23T23:54:58.670Z,13.77
2023-05-23T23:57:25.208Z,13.99
2023-05-23T23:59:51.788Z,13.65
